Gould, Arkansas
Current Conditions -  °F | °C
As of 6:53 AM on Sunday 23 Nov 2014 (Local Time) from KPBF Reporting Station
Light Rain Light Rain  
Wind Chill: 14°   Ceiling: 700
Heat Index: 14°   Visibility: 7mi
Dew Point: 13°   Wind: 13mph
Humidity: 93%   Direction: 130°SE
Pressure: 29.67"   Gusts: NA
Location:  33.99°N, 91.56°W
Report Text: KPBF 231253Z AUTO 13011KT 7SM -RA OVC007 14/13 A2967 RMK AO2 RAB09 SLP045 P0002 T01390128
Loading
Personal Weather Stations






























Interactive Weather Map New forecast layout! Learn more

10-Day Weather Forecast

Advertisements
Track Severe Weather on mobile